Jupiter — WAK3719 — position and weather

sailwx.info

Track history (hours):
 
Tides and Currents Weather Stations Pressure Air Temp Water Temp Dewpoint Dewpoint Depression Visibility Wind Speed Wind Dir Waves Ship Positions

Jupiter

Owner: G & H Towing Company, GALVESTON, TX. More information available from US FCC via Universal Licensing System and Coast Guard Vessel Documentation Center.

Last reported at 2018-Jul-22 03:01 UTC. Time now 2018-Jul-22 03:14 UTC.
Position N 29°19' W 094°47'.

Length 27 m; draft 5 m.

Type: Tug. MMSI: 366921780.

Date/timePositionNaut miles runAvg speedWind from/ knotsBaromVisibWave heightAir tempDewpointWater temp
2018-Jul-22 03:01N 29°19' W 094°47'0 0.0
2018-Jul-22 02:30N 29°19' W 094°47'0 0.0
2018-Jul-22 02:01N 29°19' W 094°47'0 0.0
2018-Jul-22 01:30N 29°19' W 094°47'0 0.0
2018-Jul-22 01:00N 29°19' W 094°47'1 1.9
2018-Jul-22 00:30N 29°20' W 094°46'5 9.4
2018-Jul-22 00:00N 29°22' W 094°51'3 3.2
2018-Jul-21 22:58N 29°22' W 094°55'2 3.5
2018-Jul-21 22:27N 29°23' W 094°53'0 0.5
2018-Jul-21 22:00N 29°23' W 094°53'0 0.0
2018-Jul-21 21:15N 29°23' W 094°53'0 0.0
2018-Jul-21 20:48N 29°23' W 094°53'0 0.0
2018-Jul-21 20:24N 29°23' W 094°53'0 0.0
2018-Jul-21 19:51N 29°23' W 094°53'0 0.0
2018-Jul-21 19:30N 29°23' W 094°53'2 3.2
2018-Jul-21 18:58N 29°22' W 094°55'0 0.3
2018-Jul-21 18:29N 29°22' W 094°55'0 0.9
2018-Jul-21 17:55N 29°22' W 094°54'2 3.6
2018-Jul-21 17:29N 29°23' W 094°53'4 8.5
2018-Jul-21 16:59N 29°21' W 094°48'2 0.4
2018-Jul-21 11:39N 29°19' W 094°47'0 0.0
2018-Jul-21 11:23N 29°19' W 094°47'2 4.5
2018-Jul-21 10:59N 29°21' W 094°47'510.2
2018-Jul-21 10:30N 29°23' W 094°53'1 2.1
2018-Jul-21 10:00N 29°22' W 094°53'0 0.0
2018-Jul-21 09:29N 29°22' W 094°53'0 0.0
2018-Jul-21 08:57N 29°22' W 094°53'0 0.0
2018-Jul-21 08:30N 29°22' W 094°53'0 0.1
2018-Jul-21 08:00N 29°22' W 094°53'0 0.0
2018-Jul-21 07:26N 29°22' W 094°53'0 0.2
2018-Jul-21 07:00N 29°22' W 094°53'1 1.2
2018-Jul-21 06:25N 29°23' W 094°54'0 0.0
2018-Jul-21 05:55N 29°23' W 094°54'0 0.0
2018-Jul-21 05:25N 29°23' W 094°54'0 0.0
2018-Jul-21 04:58N 29°23' W 094°54'0 0.7
2018-Jul-21 04:30N 29°22' W 094°53'1 2.7
2018-Jul-21 04:00N 29°23' W 094°52'5 9.2
2018-Jul-21 03:30N 29°21' W 094°47'2 2.4
2018-Jul-21 02:50N 29°19' W 094°47'0 0.0
2018-Jul-21 02:26N 29°19' W 094°47'0 0.6
2018-Jul-21 01:59N 29°19' W 094°47'2 3.7
2018-Jul-21 01:30N 29°19' W 094°49'1 1.2
2018-Jul-21 01:00N 29°19' W 094°48'3 6.7
2018-Jul-21 00:30N 29°21' W 094°45'2 3.0
2018-Jul-21 00:00N 29°20' W 094°47'0 0.1
2018-Jul-20 20:09N 29°19' W 094°47'1 7.5
2018-Jul-20 20:01N 29°20' W 094°46'5 9.6
2018-Jul-20 19:30N 29°23' W 094°51'3 6.3
2018-Jul-20 18:59N 29°22' W 094°55'0 0.4
2018-Jul-20 18:30N 29°22' W 094°55'2 3.2
2018-Jul-20 17:59N 29°23' W 094°53'0 0.5
2018-Jul-20 17:30N 29°23' W 094°53'0 0.0
2018-Jul-20 16:33N 29°23' W 094°53'1 3.6
2018-Jul-20 16:24N 29°22' W 094°53'0 0.1
2018-Jul-20 15:53N 29°22' W 094°53'1 1.5
2018-Jul-20 15:27N 29°23' W 094°53'0 0.6
2018-Jul-20 15:00N 29°23' W 094°53'0 0.0
2018-Jul-20 14:28N 29°23' W 094°53'0 0.0
2018-Jul-20 13:58N 29°23' W 094°53'1 1.4
2018-Jul-20 13:30N 29°22' W 094°53'0 0.2
2018-Jul-20 12:57N 29°22' W 094°53'1 1.9
2018-Jul-20 12:29N 29°23' W 094°53'1 1.7
2018-Jul-20 12:00N 29°23' W 094°54'0 0.0
2018-Jul-20 11:25N 29°23' W 094°54'0 0.0
2018-Jul-20 11:00N 29°23' W 094°54'0 0.0
2018-Jul-20 10:30N 29°23' W 094°54'1 1.0
2018-Jul-20 09:56N 29°22' W 094°53'1 0.6
2018-Jul-20 08:52N 29°23' W 094°54'0 0.2
2018-Jul-20 08:28N 29°23' W 094°54'1 1.4
2018-Jul-20 08:00N 29°22' W 094°53'2 3.0
2018-Jul-20 07:24N 29°22' W 094°51'3 8.4
2018-Jul-20 07:00N 29°21' W 094°48'2 3.8
2018-Jul-20 06:30N 29°19' W 094°47'0 0.0
2018-Jul-20 05:59N 29°19' W 094°47'0 0.0
2018-Jul-20 05:29N 29°19' W 094°47'0 0.0
2018-Jul-20 04:59N 29°19' W 094°47'0 0.0
2018-Jul-20 04:29N 29°19' W 094°47'0 0.0
2018-Jul-20 03:59N 29°19' W 094°47'0 0.0
2018-Jul-20 03:29N 29°19' W 094°47'0 0.0
2018-Jul-20 02:59N 29°19' W 094°47'0 0.0
2018-Jul-20 02:29N 29°19' W 094°47'0 0.0
2018-Jul-20 01:56N 29°19' W 094°47'0 0.0
2018-Jul-20 01:29N 29°19' W 094°47'0 0.9
2018-Jul-20 01:00N 29°19' W 094°47'0 0.7
2018-Jul-20 00:19N 29°19' W 094°47'0 0.0
2018-Jul-19 21:37N 29°19' W 094°47'0 1.7
2018-Jul-19 21:30N 29°19' W 094°47'4 7.6
2018-Jul-19 21:00N 29°21' W 094°43'4 5.7
2018-Jul-19 20:23N 29°18' W 094°41'1110.2
2018-Jul-19 19:16N 29°10' W 094°51'2 8.1
2018-Jul-19 19:00N 29°09' W 094°53'5 9.5
2018-Jul-19 18:30N 29°06' W 094°58'510.0
2018-Jul-19 18:00N 29°04' W 095°02'4 8.4
2018-Jul-19 17:30N 29°01' W 095°06'4 8.7
2018-Jul-19 17:00N 28°58' W 095°10'611.5
2018-Jul-19 16:30N 28°55' W 095°15'2 1.2
2018-Jul-19 14:44N 28°56' W 095°18'1 3.8
2018-Jul-19 14:26N 28°57' W 095°18'4 4.6
2018-Jul-19 13:30N 28°55' W 095°14'4 8.8
2018-Jul-19 13:00N 28°58' W 095°10'5 9.3
2018-Jul-19 12:30N 29°01' W 095°06'5 9.3
2018-Jul-19 12:00N 29°04' W 095°02'5 9.5
2018-Jul-19 11:30N 29°07' W 094°57'5 9.5
2018-Jul-19 11:00N 29°09' W 094°53'5 9.5
2018-Jul-19 10:31N 29°12' W 094°48'5 8.7
2018-Jul-19 09:59N 29°15' W 094°44'4 8.6
2018-Jul-19 09:30N 29°18' W 094°41'3 5.3
2018-Jul-19 09:01N 29°20' W 094°42'5 8.9
2018-Jul-19 08:30N 29°20' W 094°47'1 1.6
2018-Jul-19 07:57N 29°19' W 094°47'0 0.1
2018-Jul-19 07:30N 29°19' W 094°47'1 2.1
2018-Jul-19 07:00N 29°20' W 094°47'1 1.0
2018-Jul-19 06:24N 29°19' W 094°47'0 0.0
2018-Jul-19 06:00N 29°19' W 094°47'0 0.0
2018-Jul-19 05:27N 29°19' W 094°47'0 0.0
2018-Jul-19 05:00N 29°19' W 094°47'0 0.0
2018-Jul-19 03:48N 29°19' W 094°47'0 0.0
2018-Jul-19 03:30N 29°19' W 094°47'0 0.0
2018-Jul-19 02:57N 29°19' W 094°47'0 0.0
2018-Jul-19 02:30N 29°19' W 094°47'0 0.0
2018-Jul-19 02:00N 29°19' W 094°47'1 2.7
2018-Jul-19 01:30N 29°19' W 094°48'0 0.0
2018-Jul-19 01:00N 29°19' W 094°48'1 1.3
2018-Jul-19 00:30N 29°19' W 094°48'1 1.3
2018-Jul-18 23:54N 29°19' W 094°47'0 0.0
2018-Jul-18 23:24N 29°19' W 094°47'1 3.3
2018-Jul-18 22:59N 29°19' W 094°48'0 0.4
2018-Jul-18 22:29N 29°19' W 094°48'1 2.5
2018-Jul-18 21:59N 29°19' W 094°47'0 0.2
2018-Jul-18 21:20N 29°19' W 094°47'0 0.0
2018-Jul-18 20:50N 29°19' W 094°47'0 0.0
2018-Jul-18 20:26N 29°19' W 094°47'0 0.7
2018-Jul-18 20:00N 29°19' W 094°47'4 8.0
2018-Jul-18 19:30N 29°22' W 094°50'3 5.2
2018-Jul-18 18:56N 29°23' W 094°54'0 0.0
2018-Jul-18 18:29N 29°23' W 094°54'1 1.7
2018-Jul-18 18:00N 29°23' W 094°53'1 1.3
2018-Jul-18 17:30N 29°23' W 094°53'0 0.0
2018-Jul-18 17:00N 29°23' W 094°53'0 0.0
2018-Jul-18 16:18N 29°23' W 094°53'0 0.0
2018-Jul-18 16:00N 29°23' W 094°53'0 0.0
2018-Jul-18 13:59N 29°23' W 094°53'2 3.5
2018-Jul-18 13:30N 29°22' W 094°55'0 0.0
2018-Jul-18 13:00N 29°22' W 094°55'2 3.3
2018-Jul-18 12:30N 29°22' W 094°53'0 1.0
2018-Jul-18 12:00N 29°23' W 094°53'0 0.0
2018-Jul-18 11:30N 29°23' W 094°53'1 0.6
2018-Jul-18 10:30N 29°22' W 094°53'2 3.2
2018-Jul-18 10:00N 29°22' W 094°55'2 4.5
2018-Jul-18 09:30N 29°23' W 094°53'5 9.7
2018-Jul-18 08:59N 29°21' W 094°47'2 2.3
2018-Jul-18 08:11N 29°19' W 094°47'0 0.0
2018-Jul-18 07:56N 29°19' W 094°47'0 0.0
2018-Jul-18 07:26N 29°19' W 094°47'0 0.0
2018-Jul-18 06:47N 29°19' W 094°47'0 0.0
2018-Jul-18 06:23N 29°19' W 094°47'0 0.0
2018-Jul-18 05:59N 29°19' W 094°47'0 0.0
2018-Jul-18 05:26N 29°19' W 094°47'0 0.0
2018-Jul-18 04:59N 29°19' W 094°47'0 0.0
2018-Jul-18 04:29N 29°19' W 094°47'0 0.0
2018-Jul-18 02:47N 29°19' W 094°47'0 0.0
2018-Jul-18 02:23N 29°19' W 094°47'1 2.4
2018-Jul-18 02:00N 29°19' W 094°48'1 1.0
2018-Jul-18 01:29N 29°19' W 094°48'0 0.0
2018-Jul-18 00:48N 29°19' W 094°48'1 4.5
2018-Jul-18 00:31N 29°19' W 094°47'0 0.0
2018-Jul-17 22:23N 29°19' W 094°47'0 0.0
2018-Jul-17 21:56N 29°19' W 094°47'0 0.0
2018-Jul-17 21:26N 29°19' W 094°47'0 0.0
2018-Jul-17 20:45N 29°19' W 094°47'0 1.0
2018-Jul-17 20:30N 29°19' W 094°47'0 0.3
2018-Jul-17 20:00N 29°19' W 094°47'0 0.0
2018-Jul-17 19:30N 29°19' W 094°47'0 0.0
2018-Jul-17 19:00N 29°19' W 094°47'1 1.6
2018-Jul-17 18:30N 29°20' W 094°47'4 8.4
2018-Jul-17 17:59N 29°22' W 094°51'2 4.6
2018-Jul-17 17:27N 29°22' W 094°53'0 0.0
2018-Jul-17 16:58N 29°22' W 094°53'1 1.1
2018-Jul-17 16:30N 29°23' W 094°53'3 6.4
2018-Jul-17 16:00N 29°22' W 094°50'4 1.1
2018-Jul-17 12:48N 29°19' W 094°47'2 5.4
2018-Jul-17 12:29N 29°21' W 094°47'5 9.7
2018-Jul-17 12:00N 29°23' W 094°52'3 5.7
2018-Jul-17 11:30N 29°22' W 094°55'1 2.9
2018-Jul-17 11:00N 29°22' W 094°53'0 0.1
2018-Jul-17 10:30N 29°22' W 094°53'0 0.0
2018-Jul-17 09:57N 29°22' W 094°53'2 3.0
2018-Jul-17 09:27N 29°23' W 094°52'510.3
2018-Jul-17 09:00N 29°21' W 094°47'2 3.3
2018-Jul-17 08:30N 29°19' W 094°47'0 0.0
2018-Jul-17 07:56N 29°19' W 094°47'0 0.0
2018-Jul-17 07:14N 29°19' W 094°47'0 0.0
2018-Jul-17 06:59N 29°19' W 094°47'0 0.0
2018-Jul-17 06:29N 29°19' W 094°47'0 0.0
2018-Jul-17 05:44N 29°19' W 094°47'0 0.0
2018-Jul-17 05:23N 29°19' W 094°47'0 0.0
2018-Jul-17 04:53N 29°19' W 094°47'0 0.0
2018-Jul-17 04:29N 29°19' W 094°47'0 0.0
2018-Jul-17 03:59N 29°19' W 094°47'0 0.0
2018-Jul-17 03:26N 29°19' W 094°47'0 0.0
2018-Jul-17 02:59N 29°19' W 094°47'0 0.0
2018-Jul-17 01:56N 29°19' W 094°47'0 0.0
2018-Jul-17 01:29N 29°19' W 094°47'0 0.0
2018-Jul-17 00:59N 29°19' W 094°47'0 0.0
2018-Jul-17 00:20N 29°19' W 094°47'0 0.0
2018-Jul-16 19:47N 29°19' W 094°47'0 0.0
2018-Jul-16 19:23N 29°19' W 094°47'0 0.0
2018-Jul-16 16:08N 29°19' W 094°47'0 0.0
2018-Jul-16 15:50N 29°19' W 094°47'0 0.0
2018-Jul-16 13:41N 29°19' W 094°47'0 0.0
2018-Jul-16 11:02N 29°19' W 094°47'0 0.0
2018-Jul-16 10:41N 29°19' W 094°47'1 3.0
2018-Jul-16 10:26N 29°19' W 094°48'1 2.5
2018-Jul-16 10:00N 29°18' W 094°49'1 1.4
2018-Jul-16 09:28N 29°19' W 094°48'1 2.3
2018-Jul-16 09:00N 29°19' W 094°47'0 0.0
2018-Jul-16 04:35N 29°19' W 094°47'0 1.9
2018-Jul-16 04:30N 29°19' W 094°47'0 0.1
2018-Jul-16 00:52N 29°19' W 094°47'0 0.0
2018-Jul-15 23:52N 29°19' W 094°47'0 0.0
2018-Jul-15 23:22N 29°19' W 094°47'0 0.0
2018-Jul-15 21:58N 29°19' W 094°47'0 0.0
2018-Jul-15 16:28N 29°19' W 094°47'2 4.3
2018-Jul-15 16:00N 29°21' W 094°48'5 3.3
2018-Jul-15 14:29N 29°23' W 094°53'0 0.2
2018-Jul-15 13:20N 29°23' W 094°53'0 0.2
2018-Jul-15 12:57N 29°23' W 094°53'0 0.0
2018-Jul-15 12:27N 29°23' W 094°53'0 0.0
2018-Jul-15 12:00N 29°23' W 094°53'0 0.0
2018-Jul-15 11:12N 29°23' W 094°53'0 0.0
2018-Jul-15 11:00N 29°23' W 094°53'0 0.0
2018-Jul-15 09:18N 29°23' W 094°53'0 0.0
2018-Jul-15 08:46N 29°23' W 094°53'1 2.7
2018-Jul-15 08:30N 29°22' W 094°53'0 0.0
2018-Jul-15 08:01N 29°22' W 094°53'0 0.4
2018-Jul-15 07:31N 29°22' W 094°53'2 4.4
2018-Jul-15 07:00N 29°22' W 094°51'5 7.2
2018-Jul-15 06:21N 29°19' W 094°47'0 0.0
2018-Jul-15 05:25N 29°19' W 094°47'0 0.0
2018-Jul-15 04:19N 29°19' W 094°47'0 0.0
2018-Jul-15 03:55N 29°19' W 094°47'0 0.0
2018-Jul-15 02:31N 29°19' W 094°47'0 0.0
2018-Jul-15 02:04N 29°19' W 094°47'0 0.0
2018-Jul-15 01:55N 29°19' W 094°47'0 0.0
2018-Jul-15 01:16N 29°19' W 094°47'0 0.0
2018-Jul-15 00:58N 29°19' W 094°47'0 0.0
2018-Jul-15 00:25N 29°19' W 094°47'0 0.0
2018-Jul-14 23:58N 29°19' W 094°47'0 0.0
2018-Jul-14 23:21N 29°19' W 094°47'0 0.0
2018-Jul-14 22:57N 29°19' W 094°47'0 0.0
2018-Jul-14 22:30N 29°19' W 094°47'1 2.6
2018-Jul-14 21:59N 29°19' W 094°48'1 2.2
2018-Jul-14 21:21N 29°19' W 094°47'0 0.0
2018-Jul-14 20:54N 29°19' W 094°47'0 0.0
2018-Jul-14 20:24N 29°19' W 094°47'0 0.0
2018-Jul-14 19:54N 29°19' W 094°47'0 0.0
2018-Jul-14 19:24N 29°19' W 094°47'0 0.0
2018-Jul-14 19:00N 29°19' W 094°47'0 0.0
2018-Jul-14 18:27N 29°19' W 094°47'0 0.0
2018-Jul-14 18:00N 29°19' W 094°47'0 0.0
2018-Jul-14 17:30N 29°19' W 094°47'0 0.0
2018-Jul-14 17:00N 29°19' W 094°47'0 0.0
2018-Jul-14 16:30N 29°19' W 094°47'0 0.0
2018-Jul-14 16:00N 29°19' W 094°47'0 0.0
2018-Jul-14 15:24N 29°19' W 094°47'0 0.0
2018-Jul-14 14:59N 29°19' W 094°47'0 0.0
2018-Jul-14 14:29N 29°19' W 094°47'0 0.0
2018-Jul-14 13:29N 29°19' W 094°47'0 0.0
2018-Jul-14 12:59N 29°19' W 094°47'0 0.0
2018-Jul-14 12:05N 29°19' W 094°47'0 0.0
2018-Jul-14 11:59N 29°19' W 094°47'0 0.0
2018-Jul-14 11:26N 29°19' W 094°47'0 0.0
2018-Jul-14 10:17N 29°19' W 094°47'0 0.0
2018-Jul-14 09:56N 29°19' W 094°47'0 0.0
2018-Jul-14 07:44N 29°19' W 094°47'0 0.0
2018-Jul-14 07:17N 29°19' W 094°47'0 0.0
2018-Jul-14 06:59N 29°19' W 094°47'0 0.0
2018-Jul-14 06:29N 29°19' W 094°47'0 0.0
2018-Jul-14 05:56N 29°19' W 094°47'0 0.0
2018-Jul-14 05:23N 29°19' W 094°47'0 0.0
2018-Jul-14 04:56N 29°19' W 094°47'0 0.0
2018-Jul-14 04:26N 29°19' W 094°47'0 0.0
2018-Jul-14 03:59N 29°19' W 094°47'0 0.0
2018-Jul-14 03:17N 29°19' W 094°47'0 0.0
2018-Jul-14 02:56N 29°19' W 094°47'0 0.0
2018-Jul-14 01:35N 29°19' W 094°47'0 0.0
2018-Jul-14 01:20N 29°19' W 094°47'0 0.0
2018-Jul-14 00:56N 29°19' W 094°47'0 0.0
2018-Jul-14 00:29N 29°19' W 094°47'0 0.0
2018-Jul-13 23:56N 29°19' W 094°47'0 0.0
2018-Jul-13 23:26N 29°19' W 094°47'0 0.0
2018-Jul-13 22:53N 29°19' W 094°47'0 0.0
2018-Jul-13 22:26N 29°19' W 094°47'0 0.0
2018-Jul-13 21:59N 29°19' W 094°47'0 0.6
2018-Jul-13 21:30N 29°19' W 094°47'0 0.9
2018-Jul-13 20:59N 29°19' W 094°47'1 2.5
2018-Jul-13 20:30N 29°19' W 094°48'3 5.2
2018-Jul-13 20:00N 29°21' W 094°47'4 8.6
2018-Jul-13 19:30N 29°23' W 094°51'2 3.5
2018-Jul-13 18:59N 29°22' W 094°53'1 1.0
2018-Jul-13 18:25N 29°23' W 094°53'0 0.0
2018-Jul-13 18:00N 29°23' W 094°53'1 1.2
2018-Jul-13 17:30N 29°22' W 094°53'1 1.4
2018-Jul-13 17:00N 29°23' W 094°53'0 0.1
2018-Jul-13 13:59N 29°22' W 094°53'0 0.1
2018-Jul-13 11:32N 29°23' W 094°54'0 6.0
2018-Jul-13 11:29N 29°23' W 094°53'1 1.8
2018-Jul-13 11:01N 29°22' W 094°54'0 0.2
2018-Jul-13 10:31N 29°22' W 094°54'0 0.9
2018-Jul-13 10:00N 29°22' W 094°53'2 2.8
2018-Jul-13 09:24N 29°23' W 094°51'410.3
2018-Jul-13 09:01N 29°21' W 094°47'2 2.6
2018-Jul-13 08:22N 29°19' W 094°47'0 0.0
2018-Jul-13 07:52N 29°19' W 094°47'0 0.0
2018-Jul-13 07:25N 29°19' W 094°47'0 0.0
2018-Jul-13 06:55N 29°19' W 094°47'0 0.0
2018-Jul-13 06:19N 29°19' W 094°47'0 0.0
2018-Jul-13 05:49N 29°19' W 094°47'0 0.0
2018-Jul-13 05:28N 29°19' W 094°47'0 0.0
2018-Jul-13 04:55N 29°19' W 094°47'0 0.0
2018-Jul-13 04:22N 29°19' W 094°47'0 0.0
2018-Jul-13 03:58N 29°19' W 094°47'0 0.0
2018-Jul-13 02:37N 29°19' W 094°47'0 0.0
2018-Jul-13 02:25N 29°19' W 094°47'0 0.0
2018-Jul-13 01:55N 29°19' W 094°47'0 0.0
2018-Jul-13 01:29N 29°19' W 094°47'3 6.4
2018-Jul-13 00:58N 29°21' W 094°44'1 2.7
2018-Jul-13 00:29N 29°21' W 094°45'2 0.4
2018-Jul-12 19:22N 29°19' W 094°47'0 0.0
2018-Jul-12 18:58N 29°19' W 094°47'0 0.0
2018-Jul-12 18:28N 29°19' W 094°47'0 0.0
2018-Jul-12 17:55N 29°19' W 094°47'0 0.1
2018-Jul-12 11:30N 29°19' W 094°47'0 0.0
2018-Jul-12 03:27N 29°19' W 094°47'  
Track history (hours):
 
Tides and Currents Weather Stations Pressure Air Temp Water Temp Dewpoint Dewpoint Depression Visibility Wind Speed Wind Dir Waves Ship Positions

Jupiter

Owner: G & H Towing Company, GALVESTON, TX. More information available from US FCC via Universal Licensing System and Coast Guard Vessel Documentation Center.

Last reported at 2018-Jul-22 03:01 UTC. Time now 2018-Jul-22 03:14 UTC.
Position N 29°19' W 094°47'.

Length 27 m; draft 5 m.

Type: Tug. MMSI: 366921780.

Date/timePositionNaut miles runAvg speedWind from/ knotsBaromVisibWave heightAir tempDewpointWater temp
2018-Jul-22 03:01N 29°19' W 094°47'0 0.0
2018-Jul-22 02:30N 29°19' W 094°47'0 0.0
2018-Jul-22 02:01N 29°19' W 094°47'0 0.0
2018-Jul-22 01:30N 29°19' W 094°47'0 0.0
2018-Jul-22 01:00N 29°19' W 094°47'1 1.9
2018-Jul-22 00:30N 29°20' W 094°46'5 9.4
2018-Jul-22 00:00N 29°22' W 094°51'3 3.2
2018-Jul-21 22:58N 29°22' W 094°55'2 3.5
2018-Jul-21 22:27N 29°23' W 094°53'0 0.5
2018-Jul-21 22:00N 29°23' W 094°53'0 0.0
2018-Jul-21 21:15N 29°23' W 094°53'0 0.0
2018-Jul-21 20:48N 29°23' W 094°53'0 0.0
2018-Jul-21 20:24N 29°23' W 094°53'0 0.0
2018-Jul-21 19:51N 29°23' W 094°53'0 0.0
2018-Jul-21 19:30N 29°23' W 094°53'2 3.2
2018-Jul-21 18:58N 29°22' W 094°55'0 0.3
2018-Jul-21 18:29N 29°22' W 094°55'0 0.9
2018-Jul-21 17:55N 29°22' W 094°54'2 3.6
2018-Jul-21 17:29N 29°23' W 094°53'4 8.5
2018-Jul-21 16:59N 29°21' W 094°48'2 0.4
2018-Jul-21 11:39N 29°19' W 094°47'0 0.0
2018-Jul-21 11:23N 29°19' W 094°47'2 4.5
2018-Jul-21 10:59N 29°21' W 094°47'510.2
2018-Jul-21 10:30N 29°23' W 094°53'1 2.1
2018-Jul-21 10:00N 29°22' W 094°53'0 0.0
2018-Jul-21 09:29N 29°22' W 094°53'0 0.0
2018-Jul-21 08:57N 29°22' W 094°53'0 0.0
2018-Jul-21 08:30N 29°22' W 094°53'0 0.1
2018-Jul-21 08:00N 29°22' W 094°53'0 0.0
2018-Jul-21 07:26N 29°22' W 094°53'0 0.2
2018-Jul-21 07:00N 29°22' W 094°53'1 1.2
2018-Jul-21 06:25N 29°23' W 094°54'0 0.0
2018-Jul-21 05:55N 29°23' W 094°54'0 0.0
2018-Jul-21 05:25N 29°23' W 094°54'0 0.0
2018-Jul-21 04:58N 29°23' W 094°54'0 0.7
2018-Jul-21 04:30N 29°22' W 094°53'1 2.7
2018-Jul-21 04:00N 29°23' W 094°52'5 9.2
2018-Jul-21 03:30N 29°21' W 094°47'2 2.4
2018-Jul-21 02:50N 29°19' W 094°47'0 0.0
2018-Jul-21 02:26N 29°19' W 094°47'0 0.6
2018-Jul-21 01:59N 29°19' W 094°47'2 3.7
2018-Jul-21 01:30N 29°19' W 094°49'1 1.2
2018-Jul-21 01:00N 29°19' W 094°48'3 6.7
2018-Jul-21 00:30N 29°21' W 094°45'2 3.0
2018-Jul-21 00:00N 29°20' W 094°47'0 0.1
2018-Jul-20 20:09N 29°19' W 094°47'1 7.5
2018-Jul-20 20:01N 29°20' W 094°46'5 9.6
2018-Jul-20 19:30N 29°23' W 094°51'3 6.3
2018-Jul-20 18:59N 29°22' W 094°55'0 0.4
2018-Jul-20 18:30N 29°22' W 094°55'2 3.2
2018-Jul-20 17:59N 29°23' W 094°53'0 0.5
2018-Jul-20 17:30N 29°23' W 094°53'0 0.0
2018-Jul-20 16:33N 29°23' W 094°53'1 3.6
2018-Jul-20 16:24N 29°22' W 094°53'0 0.1
2018-Jul-20 15:53N 29°22' W 094°53'1 1.5
2018-Jul-20 15:27N 29°23' W 094°53'0 0.6
2018-Jul-20 15:00N 29°23' W 094°53'0 0.0
2018-Jul-20 14:28N 29°23' W 094°53'0 0.0
2018-Jul-20 13:58N 29°23' W 094°53'1 1.4
2018-Jul-20 13:30N 29°22' W 094°53'0 0.2
2018-Jul-20 12:57N 29°22' W 094°53'1 1.9
2018-Jul-20 12:29N 29°23' W 094°53'1 1.7
2018-Jul-20 12:00N 29°23' W 094°54'0 0.0
2018-Jul-20 11:25N 29°23' W 094°54'0 0.0
2018-Jul-20 11:00N 29°23' W 094°54'0 0.0
2018-Jul-20 10:30N 29°23' W 094°54'1 1.0
2018-Jul-20 09:56N 29°22' W 094°53'1 0.6
2018-Jul-20 08:52N 29°23' W 094°54'0 0.2
2018-Jul-20 08:28N 29°23' W 094°54'1 1.4
2018-Jul-20 08:00N 29°22' W 094°53'2 3.0
2018-Jul-20 07:24N 29°22' W 094°51'3 8.4
2018-Jul-20 07:00N 29°21' W 094°48'2 3.8
2018-Jul-20 06:30N 29°19' W 094°47'0 0.0
2018-Jul-20 05:59N 29°19' W 094°47'0 0.0
2018-Jul-20 05:29N 29°19' W 094°47'0 0.0
2018-Jul-20 04:59N 29°19' W 094°47'0 0.0
2018-Jul-20 04:29N 29°19' W 094°47'0 0.0
2018-Jul-20 03:59N 29°19' W 094°47'0 0.0
2018-Jul-20 03:29N 29°19' W 094°47'0 0.0
2018-Jul-20 02:59N 29°19' W 094°47'0 0.0
2018-Jul-20 02:29N 29°19' W 094°47'0 0.0
2018-Jul-20 01:56N 29°19' W 094°47'0 0.0
2018-Jul-20 01:29N 29°19' W 094°47'0 0.9
2018-Jul-20 01:00N 29°19' W 094°47'0 0.7
2018-Jul-20 00:19N 29°19' W 094°47'0 0.0
2018-Jul-19 21:37N 29°19' W 094°47'0 1.7
2018-Jul-19 21:30N 29°19' W 094°47'4 7.6
2018-Jul-19 21:00N 29°21' W 094°43'4 5.7
2018-Jul-19 20:23N 29°18' W 094°41'1110.2
2018-Jul-19 19:16N 29°10' W 094°51'2 8.1
2018-Jul-19 19:00N 29°09' W 094°53'5 9.5
2018-Jul-19 18:30N 29°06' W 094°58'510.0
2018-Jul-19 18:00N 29°04' W 095°02'4 8.4
2018-Jul-19 17:30N 29°01' W 095°06'4 8.7
2018-Jul-19 17:00N 28°58' W 095°10'611.5
2018-Jul-19 16:30N 28°55' W 095°15'2 1.2
2018-Jul-19 14:44N 28°56' W 095°18'1 3.8
2018-Jul-19 14:26N 28°57' W 095°18'4 4.6
2018-Jul-19 13:30N 28°55' W 095°14'4 8.8
2018-Jul-19 13:00N 28°58' W 095°10'5 9.3
2018-Jul-19 12:30N 29°01' W 095°06'5 9.3
2018-Jul-19 12:00N 29°04' W 095°02'5 9.5
2018-Jul-19 11:30N 29°07' W 094°57'5 9.5
2018-Jul-19 11:00N 29°09' W 094°53'5 9.5
2018-Jul-19 10:31N 29°12' W 094°48'5 8.7
2018-Jul-19 09:59N 29°15' W 094°44'4 8.6
2018-Jul-19 09:30N 29°18' W 094°41'3 5.3
2018-Jul-19 09:01N 29°20' W 094°42'5 8.9
2018-Jul-19 08:30N 29°20' W 094°47'1 1.6
2018-Jul-19 07:57N 29°19' W 094°47'0 0.1
2018-Jul-19 07:30N 29°19' W 094°47'1 2.1
2018-Jul-19 07:00N 29°20' W 094°47'1 1.0
2018-Jul-19 06:24N 29°19' W 094°47'0 0.0
2018-Jul-19 06:00N 29°19' W 094°47'0 0.0
2018-Jul-19 05:27N 29°19' W 094°47'0 0.0
2018-Jul-19 05:00N 29°19' W 094°47'0 0.0
2018-Jul-19 03:48N 29°19' W 094°47'0 0.0
2018-Jul-19 03:30N 29°19' W 094°47'0 0.0
2018-Jul-19 02:57N 29°19' W 094°47'0 0.0
2018-Jul-19 02:30N 29°19' W 094°47'0 0.0
2018-Jul-19 02:00N 29°19' W 094°47'1 2.7
2018-Jul-19 01:30N 29°19' W 094°48'0 0.0
2018-Jul-19 01:00N 29°19' W 094°48'1 1.3
2018-Jul-19 00:30N 29°19' W 094°48'1 1.3
2018-Jul-18 23:54N 29°19' W 094°47'0 0.0
2018-Jul-18 23:24N 29°19' W 094°47'1 3.3
2018-Jul-18 22:59N 29°19' W 094°48'0 0.4
2018-Jul-18 22:29N 29°19' W 094°48'1 2.5
2018-Jul-18 21:59N 29°19' W 094°47'0 0.2
2018-Jul-18 21:20N 29°19' W 094°47'0 0.0
2018-Jul-18 20:50N 29°19' W 094°47'0 0.0
2018-Jul-18 20:26N 29°19' W 094°47'0 0.7
2018-Jul-18 20:00N 29°19' W 094°47'4 8.0
2018-Jul-18 19:30N 29°22' W 094°50'3 5.2
2018-Jul-18 18:56N 29°23' W 094°54'0 0.0
2018-Jul-18 18:29N 29°23' W 094°54'1 1.7
2018-Jul-18 18:00N 29°23' W 094°53'1 1.3
2018-Jul-18 17:30N 29°23' W 094°53'0 0.0
2018-Jul-18 17:00N 29°23' W 094°53'0 0.0
2018-Jul-18 16:18N 29°23' W 094°53'0 0.0
2018-Jul-18 16:00N 29°23' W 094°53'0 0.0
2018-Jul-18 13:59N 29°23' W 094°53'2 3.5
2018-Jul-18 13:30N 29°22' W 094°55'0 0.0
2018-Jul-18 13:00N 29°22' W 094°55'2 3.3
2018-Jul-18 12:30N 29°22' W 094°53'0 1.0
2018-Jul-18 12:00N 29°23' W 094°53'0 0.0
2018-Jul-18 11:30N 29°23' W 094°53'1 0.6
2018-Jul-18 10:30N 29°22' W 094°53'2 3.2
2018-Jul-18 10:00N 29°22' W 094°55'2 4.5
2018-Jul-18 09:30N 29°23' W 094°53'5 9.7
2018-Jul-18 08:59N 29°21' W 094°47'2 2.3
2018-Jul-18 08:11N 29°19' W 094°47'0 0.0
2018-Jul-18 07:56N 29°19' W 094°47'0 0.0
2018-Jul-18 07:26N 29°19' W 094°47'0 0.0
2018-Jul-18 06:47N 29°19' W 094°47'0 0.0
2018-Jul-18 06:23N 29°19' W 094°47'0 0.0
2018-Jul-18 05:59N 29°19' W 094°47'0 0.0
2018-Jul-18 05:26N 29°19' W 094°47'0 0.0
2018-Jul-18 04:59N 29°19' W 094°47'0 0.0
2018-Jul-18 04:29N 29°19' W 094°47'0 0.0
2018-Jul-18 02:47N 29°19' W 094°47'0 0.0
2018-Jul-18 02:23N 29°19' W 094°47'1 2.4
2018-Jul-18 02:00N 29°19' W 094°48'1 1.0
2018-Jul-18 01:29N 29°19' W 094°48'0 0.0
2018-Jul-18 00:48N 29°19' W 094°48'1 4.5
2018-Jul-18 00:31N 29°19' W 094°47'0 0.0
2018-Jul-17 22:23N 29°19' W 094°47'0 0.0
2018-Jul-17 21:56N 29°19' W 094°47'0 0.0
2018-Jul-17 21:26N 29°19' W 094°47'0 0.0
2018-Jul-17 20:45N 29°19' W 094°47'0 1.0
2018-Jul-17 20:30N 29°19' W 094°47'0 0.3
2018-Jul-17 20:00N 29°19' W 094°47'0 0.0
2018-Jul-17 19:30N 29°19' W 094°47'0 0.0
2018-Jul-17 19:00N 29°19' W 094°47'1 1.6
2018-Jul-17 18:30N 29°20' W 094°47'4 8.4
2018-Jul-17 17:59N 29°22' W 094°51'2 4.6
2018-Jul-17 17:27N 29°22' W 094°53'0 0.0
2018-Jul-17 16:58N 29°22' W 094°53'1 1.1
2018-Jul-17 16:30N 29°23' W 094°53'3 6.4
2018-Jul-17 16:00N 29°22' W 094°50'4 1.1
2018-Jul-17 12:48N 29°19' W 094°47'2 5.4
2018-Jul-17 12:29N 29°21' W 094°47'5 9.7
2018-Jul-17 12:00N 29°23' W 094°52'3 5.7
2018-Jul-17 11:30N 29°22' W 094°55'1 2.9
2018-Jul-17 11:00N 29°22' W 094°53'0 0.1
2018-Jul-17 10:30N 29°22' W 094°53'0 0.0
2018-Jul-17 09:57N 29°22' W 094°53'2 3.0
2018-Jul-17 09:27N 29°23' W 094°52'510.3
2018-Jul-17 09:00N 29°21' W 094°47'2 3.3
2018-Jul-17 08:30N 29°19' W 094°47'0 0.0
2018-Jul-17 07:56N 29°19' W 094°47'0 0.0
2018-Jul-17 07:14N 29°19' W 094°47'0 0.0
2018-Jul-17 06:59N 29°19' W 094°47'0 0.0
2018-Jul-17 06:29N 29°19' W 094°47'0 0.0
2018-Jul-17 05:44N 29°19' W 094°47'0 0.0
2018-Jul-17 05:23N 29°19' W 094°47'0 0.0
2018-Jul-17 04:53N 29°19' W 094°47'0 0.0
2018-Jul-17 04:29N 29°19' W 094°47'0 0.0
2018-Jul-17 03:59N 29°19' W 094°47'0 0.0
2018-Jul-17 03:26N 29°19' W 094°47'0 0.0
2018-Jul-17 02:59N 29°19' W 094°47'0 0.0
2018-Jul-17 01:56N 29°19' W 094°47'0 0.0
2018-Jul-17 01:29N 29°19' W 094°47'0 0.0
2018-Jul-17 00:59N 29°19' W 094°47'0 0.0
2018-Jul-17 00:20N 29°19' W 094°47'0 0.0
2018-Jul-16 19:47N 29°19' W 094°47'0 0.0
2018-Jul-16 19:23N 29°19' W 094°47'0 0.0
2018-Jul-16 16:08N 29°19' W 094°47'0 0.0
2018-Jul-16 15:50N 29°19' W 094°47'0 0.0
2018-Jul-16 13:41N 29°19' W 094°47'0 0.0
2018-Jul-16 11:02N 29°19' W 094°47'0 0.0
2018-Jul-16 10:41N 29°19' W 094°47'1 3.0
2018-Jul-16 10:26N 29°19' W 094°48'1 2.5
2018-Jul-16 10:00N 29°18' W 094°49'1 1.4
2018-Jul-16 09:28N 29°19' W 094°48'1 2.3
2018-Jul-16 09:00N 29°19' W 094°47'0 0.0
2018-Jul-16 04:35N 29°19' W 094°47'0 1.9
2018-Jul-16 04:30N 29°19' W 094°47'0 0.1
2018-Jul-16 00:52N 29°19' W 094°47'0 0.0
2018-Jul-15 23:52N 29°19' W 094°47'0 0.0
2018-Jul-15 23:22N 29°19' W 094°47'0 0.0
2018-Jul-15 21:58N 29°19' W 094°47'0 0.0
2018-Jul-15 16:28N 29°19' W 094°47'2 4.3
2018-Jul-15 16:00N 29°21' W 094°48'5 3.3
2018-Jul-15 14:29N 29°23' W 094°53'0 0.2
2018-Jul-15 13:20N 29°23' W 094°53'0 0.2
2018-Jul-15 12:57N 29°23' W 094°53'0 0.0
2018-Jul-15 12:27N 29°23' W 094°53'0 0.0
2018-Jul-15 12:00N 29°23' W 094°53'0 0.0
2018-Jul-15 11:12N 29°23' W 094°53'0 0.0
2018-Jul-15 11:00N 29°23' W 094°53'0 0.0
2018-Jul-15 09:18N 29°23' W 094°53'0 0.0
2018-Jul-15 08:46N 29°23' W 094°53'1 2.7
2018-Jul-15 08:30N 29°22' W 094°53'0 0.0
2018-Jul-15 08:01N 29°22' W 094°53'0 0.4
2018-Jul-15 07:31N 29°22' W 094°53'2 4.4
2018-Jul-15 07:00N 29°22' W 094°51'5 7.2
2018-Jul-15 06:21N 29°19' W 094°47'0 0.0
2018-Jul-15 05:25N 29°19' W 094°47'0 0.0
2018-Jul-15 04:19N 29°19' W 094°47'0 0.0
2018-Jul-15 03:55N 29°19' W 094°47'0 0.0
2018-Jul-15 02:31N 29°19' W 094°47'0 0.0
2018-Jul-15 02:04N 29°19' W 094°47'0 0.0
2018-Jul-15 01:55N 29°19' W 094°47'0 0.0
2018-Jul-15 01:16N 29°19' W 094°47'0 0.0
2018-Jul-15 00:58N 29°19' W 094°47'0 0.0
2018-Jul-15 00:25N 29°19' W 094°47'0 0.0
2018-Jul-14 23:58N 29°19' W 094°47'0 0.0
2018-Jul-14 23:21N 29°19' W 094°47'0 0.0
2018-Jul-14 22:57N 29°19' W 094°47'0 0.0
2018-Jul-14 22:30N 29°19' W 094°47'1 2.6
2018-Jul-14 21:59N 29°19' W 094°48'1 2.2
2018-Jul-14 21:21N 29°19' W 094°47'0 0.0
2018-Jul-14 20:54N 29°19' W 094°47'0 0.0
2018-Jul-14 20:24N 29°19' W 094°47'0 0.0
2018-Jul-14 19:54N 29°19' W 094°47'0 0.0
2018-Jul-14 19:24N 29°19' W 094°47'0 0.0
2018-Jul-14 19:00N 29°19' W 094°47'0 0.0
2018-Jul-14 18:27N 29°19' W 094°47'0 0.0
2018-Jul-14 18:00N 29°19' W 094°47'0 0.0
2018-Jul-14 17:30N 29°19' W 094°47'0 0.0
2018-Jul-14 17:00N 29°19' W 094°47'0 0.0
2018-Jul-14 16:30N 29°19' W 094°47'0 0.0
2018-Jul-14 16:00N 29°19' W 094°47'0 0.0
2018-Jul-14 15:24N 29°19' W 094°47'0 0.0
2018-Jul-14 14:59N 29°19' W 094°47'0 0.0
2018-Jul-14 14:29N 29°19' W 094°47'0 0.0
2018-Jul-14 13:29N 29°19' W 094°47'0 0.0
2018-Jul-14 12:59N 29°19' W 094°47'0 0.0
2018-Jul-14 12:05N 29°19' W 094°47'0 0.0
2018-Jul-14 11:59N 29°19' W 094°47'0 0.0
2018-Jul-14 11:26N 29°19' W 094°47'0 0.0
2018-Jul-14 10:17N 29°19' W 094°47'0 0.0
2018-Jul-14 09:56N 29°19' W 094°47'0 0.0
2018-Jul-14 07:44N 29°19' W 094°47'0 0.0
2018-Jul-14 07:17N 29°19' W 094°47'0 0.0
2018-Jul-14 06:59N 29°19' W 094°47'0 0.0
2018-Jul-14 06:29N 29°19' W 094°47'0 0.0
2018-Jul-14 05:56N 29°19' W 094°47'0 0.0
2018-Jul-14 05:23N 29°19' W 094°47'0 0.0
2018-Jul-14 04:56N 29°19' W 094°47'0 0.0
2018-Jul-14 04:26N 29°19' W 094°47'0 0.0
2018-Jul-14 03:59N 29°19' W 094°47'0 0.0
2018-Jul-14 03:17N 29°19' W 094°47'0 0.0
2018-Jul-14 02:56N 29°19' W 094°47'0 0.0
2018-Jul-14 01:35N 29°19' W 094°47'0 0.0
2018-Jul-14 01:20N 29°19' W 094°47'0 0.0
2018-Jul-14 00:56N 29°19' W 094°47'0 0.0
2018-Jul-14 00:29N 29°19' W 094°47'0 0.0
2018-Jul-13 23:56N 29°19' W 094°47'0 0.0
2018-Jul-13 23:26N 29°19' W 094°47'0 0.0
2018-Jul-13 22:53N 29°19' W 094°47'0 0.0
2018-Jul-13 22:26N 29°19' W 094°47'0 0.0
2018-Jul-13 21:59N 29°19' W 094°47'0 0.6
2018-Jul-13 21:30N 29°19' W 094°47'0 0.9
2018-Jul-13 20:59N 29°19' W 094°47'1 2.5
2018-Jul-13 20:30N 29°19' W 094°48'3 5.2
2018-Jul-13 20:00N 29°21' W 094°47'4 8.6
2018-Jul-13 19:30N 29°23' W 094°51'2 3.5
2018-Jul-13 18:59N 29°22' W 094°53'1 1.0
2018-Jul-13 18:25N 29°23' W 094°53'0 0.0
2018-Jul-13 18:00N 29°23' W 094°53'1 1.2
2018-Jul-13 17:30N 29°22' W 094°53'1 1.4
2018-Jul-13 17:00N 29°23' W 094°53'0 0.1
2018-Jul-13 13:59N 29°22' W 094°53'0 0.1
2018-Jul-13 11:32N 29°23' W 094°54'0 6.0
2018-Jul-13 11:29N 29°23' W 094°53'1 1.8
2018-Jul-13 11:01N 29°22' W 094°54'0 0.2
2018-Jul-13 10:31N 29°22' W 094°54'0 0.9
2018-Jul-13 10:00N 29°22' W 094°53'2 2.8
2018-Jul-13 09:24N 29°23' W 094°51'410.3
2018-Jul-13 09:01N 29°21' W 094°47'2 2.6
2018-Jul-13 08:22N 29°19' W 094°47'0 0.0
2018-Jul-13 07:52N 29°19' W 094°47'0 0.0
2018-Jul-13 07:25N 29°19' W 094°47'0 0.0
2018-Jul-13 06:55N 29°19' W 094°47'0 0.0
2018-Jul-13 06:19N 29°19' W 094°47'0 0.0
2018-Jul-13 05:49N 29°19' W 094°47'0 0.0
2018-Jul-13 05:28N 29°19' W 094°47'0 0.0
2018-Jul-13 04:55N 29°19' W 094°47'0 0.0
2018-Jul-13 04:22N 29°19' W 094°47'0 0.0
2018-Jul-13 03:58N 29°19' W 094°47'0 0.0
2018-Jul-13 02:37N 29°19' W 094°47'0 0.0
2018-Jul-13 02:25N 29°19' W 094°47'0 0.0
2018-Jul-13 01:55N 29°19' W 094°47'0 0.0
2018-Jul-13 01:29N 29°19' W 094°47'3 6.4
2018-Jul-13 00:58N 29°21' W 094°44'1 2.7
2018-Jul-13 00:29N 29°21' W 094°45'2 0.4
2018-Jul-12 19:22N 29°19' W 094°47'0 0.0
2018-Jul-12 18:58N 29°19' W 094°47'0 0.0
2018-Jul-12 18:28N 29°19' W 094°47'0 0.0
2018-Jul-12 17:55N 29°19' W 094°47'0 0.1
2018-Jul-12 11:30N 29°19' W 094°47'0 0.0
2018-Jul-12 03:27N 29°19' W 094°47'  

Dump ship's entire track history